Time;durP1;ratioP1;P1;durP2;ratioP2;P2;SDS_P1;SDS_P2;PMS_P1;PMS_P2;Temp;Humidity;BMP_temperature;BMP_pressure;BME280_temperature;BME280_humidity;BME280_pressure;Samples;Min_cycle;Max_cycle;Signal;HPM_P1;HPM_P2
2024/02/18 05:05:53;;;;;;;0.30;0.30;;;6.10;99.90;;;;;;5805520;23;20246;-68
2024/02/18 05:08:19;;;;;;;0.30;0.30;;;6.10;99.90;;;;;;4954493;29;20197;-68
2024/02/18 05:10:45;;;;;;;0.30;0.30;;;6.10;99.90;;;;;;4954652;29;20190;-68
2024/02/18 05:13:11;;;;;;;0.30;0.30;;;6.10;99.90;;;;;;4954437;29;20173;-68
2024/02/18 05:15:36;;;;;;;0.83;0.83;;;6.00;99.90;;;;;;4954129;29;20195;-69
2024/02/18 05:18:02;;;;;;;0.30;0.30;;;5.90;99.90;;;;;;4954851;29;20632;-68
2024/02/18 05:20:28;;;;;;;0.30;0.30;;;5.90;99.90;;;;;;4956356;28;20245;-67
2024/02/18 05:22:53;;;;;;;0.40;0.40;;;5.90;99.90;;;;;;4957897;29;20255;-68
2024/02/18 05:25:19;;;;;;;0.40;0.40;;;5.90;99.90;;;;;;4940214;29;20174;-68
2024/02/18 05:27:44;;;;;;;0.40;0.40;;;5.80;99.90;;;;;;4940509;29;20182;-67
2024/02/18 05:30:11;;;;;;;0.30;0.30;;;5.80;99.90;;;;;;4957759;29;20622;-67
2024/02/18 05:32:37;;;;;;;0.40;0.40;;;5.80;99.90;;;;;;4940353;29;20169;-68
2024/02/18 05:35:02;;;;;;;0.40;0.40;;;5.80;99.90;;;;;;4956901;29;20253;-68
2024/02/18 05:37:28;;;;;;;0.60;0.60;;;5.80;99.90;;;;;;4957254;29;20187;-68
2024/02/18 05:39:55;;;;;;;0.33;0.33;;;5.80;99.90;;;;;;4957549;29;20183;-68
2024/02/18 05:42:21;;;;;;;0.50;0.50;;;5.80;99.90;;;;;;4957430;29;20639;-68
2024/02/18 05:44:47;;;;;;;0.30;0.30;;;5.80;99.90;;;;;;4940033;29;20190;-69
2024/02/18 05:47:12;;;;;;;0.37;0.37;;;5.80;99.90;;;;;;4957250;29;20208;-68
2024/02/18 05:49:38;;;;;;;0.30;0.30;;;5.80;99.90;;;;;;4957351;29;20598;-67
2024/02/18 05:52:04;;;;;;;0.33;0.33;;;5.80;99.90;;;;;;4940093;29;20179;-69
2024/02/18 05:54:30;;;;;;;0.35;0.35;;;5.80;99.90;;;;;;4939854;29;20184;-67
2024/02/18 05:56:56;;;;;;;0.30;0.30;;;5.80;99.90;;;;;;4957334;29;20196;-68
2024/02/18 05:59:21;;;;;;;0.40;0.40;;;5.80;99.90;;;;;;4957349;29;20269;-69
2024/02/18 06:01:47;;;;;;;0.30;0.30;;;5.70;99.90;;;;;;4957452;29;20186;-68
2024/02/18 06:04:13;;;;;;;0.40;0.40;;;5.70;99.90;;;;;;4957291;29;20254;-67
2024/02/18 06:06:38;;;;;;;0.40;0.40;;;5.60;99.90;;;;;;4956540;29;20209;-67
2024/02/18 06:09:04;;;;;;;0.70;0.70;;;5.60;99.90;;;;;;4957153;29;20176;-68
2024/02/18 06:11:30;;;;;;;0.40;0.40;;;5.50;99.90;;;;;;4957213;29;20172;-68
2024/02/18 06:13:56;;;;;;;0.30;0.30;;;5.50;99.90;;;;;;4957536;29;20210;-68
2024/02/18 06:16:22;;;;;;;0.30;0.30;;;5.50;99.90;;;;;;4956759;29;20202;-68
2024/02/18 06:18:47;;;;;;;0.40;0.40;;;5.40;99.90;;;;;;4957200;29;20402;-68
2024/02/18 06:21:23;;;;;;;0.30;0.30;;;5.40;99.90;;;;;;4957180;29;20184;-68
2024/02/18 06:23:50;;;;;;;0.30;0.30;;;5.40;99.90;;;;;;4939717;29;20277;-68
2024/02/18 06:26:16;;;;;;;0.30;0.20;;;5.40;99.90;;;;;;4956578;29;20237;-68
2024/02/18 06:28:42;;;;;;;0.30;0.30;;;5.40;99.90;;;;;;4956779;29;20187;-68
2024/02/18 06:31:07;;;;;;;0.30;0.30;;;5.40;99.90;;;;;;4956178;28;20704;-67
2024/02/18 06:33:33;;;;;;;0.30;0.30;;;5.40;99.90;;;;;;4956638;29;20208;-68
2024/02/18 06:35:59;;;;;;;0.30;0.30;;;5.40;99.90;;;;;;4956294;29;20659;-68
2024/02/18 06:38:24;;;;;;;0.70;0.70;;;5.30;99.90;;;;;;4939562;29;20188;-68
2024/02/18 06:40:50;;;;;;;0.40;0.40;;;5.40;99.90;;;;;;4956289;29;20595;-68
2024/02/18 06:43:16;;;;;;;0.50;0.50;;;5.40;99.90;;;;;;4956520;29;20278;-68
2024/02/18 06:45:43;;;;;;;0.40;0.40;;;5.50;99.90;;;;;;4938908;29;20464;-68
2024/02/18 06:48:09;;;;;;;0.33;0.33;;;5.60;99.90;;;;;;4956664;29;20602;-68
2024/02/18 06:50:34;;;;;;;0.30;0.30;;;5.60;99.90;;;;;;4956311;29;20169;-69
2024/02/18 06:53:00;;;;;;;0.40;0.40;;;5.80;99.90;;;;;;4939114;29;20692;-69
2024/02/18 06:55:26;;;;;;;0.30;0.30;;;5.90;99.90;;;;;;4955752;29;20299;-68
2024/02/18 06:57:51;;;;;;;0.50;0.50;;;6.10;99.90;;;;;;4956368;29;20180;-68
2024/02/18 07:00:17;;;;;;;0.60;0.60;;;6.20;99.90;;;;;;4956859;29;20173;-67
2024/02/18 07:02:43;;;;;;;0.30;0.30;;;6.40;99.90;;;;;;4955925;29;20214;-67
2024/02/18 07:05:09;;;;;;;0.50;0.50;;;6.50;99.90;;;;;;4955975;29;20161;-67
2024/02/18 07:07:35;;;;;;;0.33;0.33;;;6.60;99.90;;;;;;4938523;29;20286;-67
2024/02/18 07:10:01;;;;;;;0.40;0.40;;;6.70;99.90;;;;;;4956140;29;20765;-67
2024/02/18 07:12:29;;;;;;;0.40;0.40;;;6.90;99.90;;;;;;4955985;29;20176;-68
2024/02/18 07:14:55;;;;;;;0.40;0.40;;;7.00;99.90;;;;;;4938249;29;20448;-68
2024/02/18 07:17:20;;;;;;;0.77;0.63;;;7.10;99.90;;;;;;4955440;29;20189;-69
2024/02/18 07:19:46;;;;;;;0.37;0.37;;;7.30;99.90;;;;;;4938024;29;20540;-69
2024/02/18 07:22:14;;;;;;;0.30;0.30;;;7.20;99.90;;;;;;4955013;29;20268;-69
2024/02/18 07:24:40;;;;;;;0.30;0.30;;;7.20;99.90;;;;;;4954975;29;20686;-69
2024/02/18 07:27:05;;;;;;;0.30;0.30;;;7.20;99.90;;;;;;4955277;29;20271;-69
2024/02/18 07:29:31;;;;;;;0.40;0.40;;;7.20;99.90;;;;;;4955345;28;20496;-69
2024/02/18 07:31:56;;;;;;;0.30;0.30;;;7.10;99.90;;;;;;4955140;29;20189;-71
2024/02/18 07:34:22;;;;;;;0.33;0.33;;;7.10;99.90;;;;;;4955202;29;20181;-71
2024/02/18 07:36:48;;;;;;;0.30;0.30;;;7.10;99.90;;;;;;4938090;29;20291;-72
2024/02/18 07:39:13;;;;;;;0.30;0.30;;;7.20;99.90;;;;;;4955357;29;20627;-69
2024/02/18 07:41:39;;;;;;;0.30;0.30;;;7.20;99.90;;;;;;4955472;29;20176;-67
2024/02/18 07:44:05;;;;;;;0.37;0.37;;;7.30;99.90;;;;;;4954357;28;20670;-68
2024/02/18 07:46:32;;;;;;;0.30;0.30;;;7.30;99.90;;;;;;4937512;29;20567;-69
2024/02/18 07:48:57;;;;;;;0.30;0.30;;;7.50;99.90;;;;;;4937870;29;20479;-68
2024/02/18 07:51:27;;;;;;;0.50;0.50;;;7.80;99.90;;;;;;4937862;29;20173;-68
2024/02/18 07:53:55;;;;;;;0.30;0.30;;;8.20;99.90;;;;;;4955035;29;20177;-69
2024/02/18 07:56:20;;;;;;;0.40;0.40;;;8.50;99.90;;;;;;4954494;29;20189;-69
2024/02/18 07:58:46;;;;;;;0.60;0.60;;;8.80;99.90;;;;;;4937753;29;20507;-68
2024/02/18 08:01:12;;;;;;;0.50;0.50;;;9.10;99.90;;;;;;4948805;29;20190;-68
2024/02/18 08:03:37;;;;;;;0.30;0.30;;;9.40;99.90;;;;;;4937145;29;20700;-68
2024/02/18 08:06:03;;;;;;;0.30;0.30;;;9.80;99.90;;;;;;4943470;29;20546;-68
2024/02/18 08:08:29;;;;;;;0.30;0.30;;;10.10;99.90;;;;;;4954760;29;20657;-68
2024/02/18 08:10:54;;;;;;;0.40;0.40;;;10.30;99.90;;;;;;4954619;29;20231;-67
2024/02/18 08:13:20;;;;;;;0.33;0.33;;;10.70;99.90;;;;;;4940129;29;20184;-69
2024/02/18 08:15:45;;;;;;;0.30;0.30;;;11.50;99.90;;;;;;4935036;29;20579;-68
2024/02/18 08:18:11;;;;;;;0.40;0.40;;;11.90;99.90;;;;;;4943247;29;20252;-69
2024/02/18 08:20:38;;;;;;;0.30;0.30;;;12.40;99.90;;;;;;4937202;29;20191;-71
2024/02/18 08:23:06;;;;;;;0.83;0.83;;;13.00;99.90;;;;;;4954513;29;20289;-69
2024/02/18 08:25:31;;;;;;;0.30;0.30;;;13.60;99.90;;;;;;4954260;28;20440;-68
2024/02/18 08:27:57;;;;;;;0.40;0.40;;;14.30;99.90;;;;;;4954873;29;20408;-68
2024/02/18 08:30:23;;;;;;;0.30;0.30;;;15.00;99.90;;;;;;4954764;29;20177;-69
2024/02/18 08:32:48;;;;;;;0.37;0.37;;;15.60;99.90;;;;;;4954961;29;20188;-68
2024/02/18 08:35:14;;;;;;;0.50;0.30;;;16.10;99.90;;;;;;4954164;28;20264;-67
2024/02/18 08:37:40;;;;;;;0.30;0.20;;;16.40;99.90;;;;;;4954680;29;20632;-70
2024/02/18 08:40:07;;;;;;;0.30;0.30;;;16.90;99.90;;;;;;4954345;29;20449;-68
2024/02/18 08:42:32;;;;;;;0.30;0.30;;;17.20;99.60;;;;;;4954385;29;20178;-67
2024/02/18 08:44:58;;;;;;;0.37;0.37;;;17.60;99.10;;;;;;4937077;29;20410;-69
2024/02/18 08:47:23;;;;;;;0.67;0.47;;;18.00;97.90;;;;;;4954467;28;20200;-69
2024/02/18 08:49:49;;;;;;;0.70;0.70;;;18.30;96.50;;;;;;4954214;29;20583;-70
2024/02/18 08:52:14;;;;;;;0.40;0.40;;;18.60;96.90;;;;;;4954450;29;20169;-69
2024/02/18 08:54:43;;;;;;;0.30;0.30;;;19.00;95.70;;;;;;4953876;28;20181;-71
2024/02/18 08:57:09;;;;;;;1.23;0.73;;;19.10;94.30;;;;;;4957686;28;20204;-72
2024/02/18 08:59:35;;;;;;;0.80;0.80;;;19.20;94.80;;;;;;4958149;29;20424;-69
2024/02/18 09:02:01;;;;;;;0.37;0.37;;;19.50;94.00;;;;;;4957934;29;20384;-69
2024/02/18 09:04:26;;;;;;;0.30;0.30;;;19.70;93.10;;;;;;4940190;29;20205;-71
2024/02/18 09:06:52;;;;;;;0.30;0.30;;;20.00;93.20;;;;;;4957302;28;20548;-72
2024/02/18 09:09:18;;;;;;;0.60;0.60;;;20.40;92.40;;;;;;4939492;29;20273;-70
2024/02/18 09:11:44;;;;;;;0.30;0.30;;;20.70;91.90;;;;;;4957956;29;20183;-69
2024/02/18 09:14:10;;;;;;;0.50;0.50;;;20.80;91.10;;;;;;4957932;29;20472;-68
2024/02/18 09:16:36;;;;;;;0.30;0.30;;;20.80;91.00;;;;;;4957590;28;20413;-69
2024/02/18 09:19:06;;;;;;;0.50;0.40;;;20.80;91.30;;;;;;4931427;29;20199;-69
2024/02/18 09:21:31;;;;;;;0.40;0.40;;;21.00;91.40;;;;;;4954231;29;20475;-65
2024/02/18 09:23:57;;;;;;;0.80;0.63;;;21.10;90.00;;;;;;4938408;29;20566;-69
2024/02/18 09:26:25;;;;;;;0.30;0.30;;;21.00;91.00;;;;;;4947619;29;20268;-70
2024/02/18 09:28:52;;;;;;;0.50;0.50;;;21.10;91.00;;;;;;4943680;29;20921;-69
2024/02/18 09:31:17;;;;;;;1.13;1.13;;;21.50;90.20;;;;;;4938875;29;20479;-69
2024/02/18 09:33:44;;;;;;;0.50;0.50;;;21.70;89.20;;;;;;4939799;29;20425;-69
2024/02/18 09:36:10;;;;;;;0.30;0.30;;;21.50;89.70;;;;;;4939740;29;20201;-70
2024/02/18 09:38:37;;;;;;;0.90;0.30;;;21.10;90.40;;;;;;4944466;29;20422;-68
2024/02/18 09:41:03;;;;;;;0.47;0.47;;;20.90;90.60;;;;;;4959724;29;20405;-70
2024/02/18 09:43:38;;;;;;;0.60;0.60;;;20.80;90.40;;;;;;4943367;29;20462;-69
2024/02/18 09:46:06;;;;;;;0.80;0.80;;;20.70;90.60;;;;;;4960549;28;20430;-68
2024/02/18 09:48:32;;;;;;;0.77;0.77;;;20.60;90.80;;;;;;4961230;29;20420;-70
2024/02/18 09:50:58;;;;;;;0.40;0.37;;;20.10;90.60;;;;;;4957871;29;20497;-71
2024/02/18 09:53:25;;;;;;;0.30;0.30;;;19.70;91.50;;;;;;4939299;29;20399;-69
2024/02/18 09:55:51;;;;;;;0.80;0.80;;;19.30;91.70;;;;;;4956624;29;20436;-69
2024/02/18 09:58:19;;;;;;;1.20;0.67;;;19.10;92.20;;;;;;4957172;29;21014;-69
2024/02/18 10:00:45;;;;;;;0.30;0.30;;;18.90;93.10;;;;;;4939703;29;20188;-69
2024/02/18 10:03:11;;;;;;;0.30;0.30;;;18.90;92.80;;;;;;4956869;29;20453;-69
2024/02/18 10:05:36;;;;;;;0.30;0.30;;;18.90;92.40;;;;;;4939436;28;20407;-71
2024/02/18 10:08:03;;;;;;;0.30;0.30;;;18.40;93.20;;;;;;4959369;29;20652;-70
2024/02/18 10:10:35;;;;;;;0.63;0.50;;;17.80;93.90;;;;;;4957358;29;20231;-69
2024/02/18 10:13:08;;;;;;;0.53;0.53;;;17.50;94.50;;;;;;4955265;29;20412;-72
2024/02/18 10:15:34;;;;;;;0.37;0.37;;;17.30;94.10;;;;;;4949776;28;20441;-69
2024/02/18 10:18:02;;;;;;;0.30;0.30;;;16.90;94.40;;;;;;4935923;29;20441;-69
2024/02/18 10:20:28;;;;;;;0.40;0.40;;;16.50;95.10;;;;;;4941189;29;20446;-69
2024/02/18 10:22:54;;;;;;;0.80;0.80;;;16.30;95.00;;;;;;4937363;29;20488;-69
2024/02/18 10:25:20;;;;;;;0.30;0.30;;;16.20;95.30;;;;;;4954839;28;20486;-68
2024/02/18 10:27:45;;;;;;;0.30;0.30;;;16.10;95.90;;;;;;4939458;29;20926;-69
2024/02/18 10:30:12;;;;;;;0.30;0.30;;;15.90;96.00;;;;;;4956738;29;20276;-69
2024/02/18 10:32:38;;;;;;;0.30;0.30;;;15.80;96.40;;;;;;4956434;29;20179;-70
2024/02/18 10:35:05;;;;;;;0.50;0.50;;;15.60;96.50;;;;;;4950930;29;20725;-69
2024/02/18 10:37:38;;;;;;;0.50;0.50;;;15.40;96.40;;;;;;4937177;29;20402;-70
2024/02/18 10:40:22;;;;;;;0.30;0.30;;;15.40;96.60;;;;;;4937266;29;20790;-70
2024/02/18 10:42:51;;;;;;;0.30;0.30;;;15.40;96.60;;;;;;4937009;29;20887;-69
2024/02/18 10:45:18;;;;;;;0.30;0.30;;;15.40;96.70;;;;;;4936714;29;20392;-70
2024/02/18 10:47:51;;;;;;;0.30;0.30;;;15.50;96.30;;;;;;4937641;29;20457;-68
2024/02/18 10:50:17;;;;;;;0.30;0.30;;;15.70;96.10;;;;;;4928386;29;20499;-70
2024/02/18 10:52:54;;;;;;;0.30;0.30;;;16.00;95.50;;;;;;4956275;29;20491;-68
2024/02/18 10:55:26;;;;;;;0.37;0.37;;;16.10;96.00;;;;;;4955926;28;20248;-69
2024/02/18 10:57:54;;;;;;;0.30;0.30;;;16.10;96.00;;;;;;4956327;29;20478;-69
2024/02/18 11:00:22;;;;;;;0.30;0.20;;;16.20;96.00;;;;;;4956071;29;20880;-69
2024/02/18 11:02:56;;;;;;;0.30;0.30;;;16.30;95.40;;;;;;4955766;29;20413;-70
2024/02/18 11:05:23;;;;;;;0.30;0.30;;;16.60;94.40;;;;;;4954861;29;20402;-69
2024/02/18 11:07:50;;;;;;;0.30;0.20;;;16.80;94.20;;;;;;4955524;29;20521;-68
2024/02/18 11:10:16;;;;;;;0.40;0.40;;;17.00;94.60;;;;;;4955811;29;20372;-70
2024/02/18 11:12:45;;;;;;;0.30;0.30;;;17.10;94.20;;;;;;4955772;29;20390;-70
2024/02/18 11:15:14;;;;;;;0.50;0.47;;;17.20;93.50;;;;;;4955206;29;20730;-69
2024/02/18 11:17:41;;;;;;;1.23;0.53;;;17.20;93.10;;;;;;4954860;29;20409;-69
2024/02/18 11:20:09;;;;;;;0.30;0.30;;;17.30;92.80;;;;;;4938649;29;20412;-70
2024/02/18 11:22:37;;;;;;;0.40;0.40;;;17.40;91.80;;;;;;4955641;29;20391;-68
2024/02/18 11:25:05;;;;;;;0.30;0.30;;;17.30;92.30;;;;;;4937736;28;20393;-69
2024/02/18 11:27:32;;;;;;;0.30;0.30;;;17.10;92.20;;;;;;4955353;29;20387;-69
2024/02/18 11:29:59;;;;;;;0.30;0.30;;;16.90;92.60;;;;;;4955457;29;20411;-69
2024/02/18 11:32:27;;;;;;;0.30;0.30;;;16.90;92.90;;;;;;4955480;29;20398;-70
2024/02/18 11:34:53;;;;;;;0.30;0.20;;;16.80;93.60;;;;;;4955404;29;20428;-70
2024/02/18 11:37:34;;;;;;;0.70;0.70;;;16.70;93.30;;;;;;4937990;29;20415;-69
2024/02/18 11:40:06;;;;;;;0.30;0.20;;;16.70;93.70;;;;;;4938073;29;20760;-70
2024/02/18 11:42:35;;;;;;;0.30;0.30;;;16.60;93.20;;;;;;4938096;29;20421;-71
2024/02/18 11:45:14;;;;;;;0.30;0.30;;;16.60;93.30;;;;;;4954730;29;20425;-70
2024/02/18 11:47:46;;;;;;;0.40;0.40;;;16.50;92.60;;;;;;4954364;29;20379;-70
2024/02/18 11:50:13;;;;;;;0.30;0.30;;;16.40;92.80;;;;;;4955359;29;20401;-70
2024/02/18 11:52:43;;;;;;;0.40;0.40;;;16.50;92.70;;;;;;4955058;29;20751;-68
2024/02/18 11:55:19;;;;;;;0.30;0.20;;;16.40;92.80;;;;;;4954816;28;20383;-69
2024/02/18 11:57:46;;;;;;;0.30;0.30;;;16.40;92.90;;;;;;4955159;29;20487;-69
2024/02/18 12:00:13;;;;;;;0.30;0.30;;;16.30;93.30;;;;;;4954940;29;20409;-70
2024/02/18 12:02:44;;;;;;;0.30;0.30;;;16.30;93.20;;;;;;4942982;29;20439;-70
2024/02/18 12:05:10;;;;;;;0.40;0.40;;;16.30;92.70;;;;;;4949997;28;20435;-70
2024/02/18 12:07:38;;;;;;;0.30;0.30;;;16.20;93.00;;;;;;4954759;29;20436;-69
2024/02/18 12:10:04;;;;;;;0.33;0.33;;;16.20;93.00;;;;;;4937804;29;20513;-69
2024/02/18 12:12:31;;;;;;;0.30;0.30;;;16.10;93.00;;;;;;4954743;29;20416;-69
2024/02/18 12:14:57;;;;;;;0.30;0.30;;;16.10;93.40;;;;;;4954534;29;20449;-69
2024/02/18 12:17:23;;;;;;;0.40;0.33;;;16.10;94.00;;;;;;4954420;28;20506;-70
2024/02/18 12:19:51;;;;;;;0.30;0.30;;;16.10;94.00;;;;;;4954803;29;20383;-70
2024/02/18 12:22:23;;;;;;;2.67;0.80;;;16.20;94.00;;;;;;4954918;29;20191;-69
2024/02/18 12:24:50;;;;;;;0.30;0.30;;;16.20;93.60;;;;;;4953877;29;20445;-69
2024/02/18 12:27:18;;;;;;;0.30;0.27;;;16.10;93.60;;;;;;4954642;29;20437;-69
2024/02/18 12:29:43;;;;;;;0.50;0.50;;;16.10;93.90;;;;;;4955764;28;20899;-69
2024/02/18 12:32:10;;;;;;;0.30;0.20;;;16.10;94.20;;;;;;4958739;29;20415;-69
2024/02/18 12:34:35;;;;;;;1.53;0.77;;;16.20;94.20;;;;;;4958307;29;20416;-69
2024/02/18 12:37:01;;;;;;;0.30;0.30;;;16.20;94.20;;;;;;4941300;29;20834;-69
2024/02/18 12:39:30;;;;;;;0.30;0.30;;;16.30;93.80;;;;;;4958019;29;20193;-70
2024/02/18 12:41:56;;;;;;;0.40;0.40;;;16.30;93.70;;;;;;4958520;29;20173;-70
2024/02/18 12:44:21;;;;;;;0.30;0.30;;;16.30;94.10;;;;;;4958194;29;20460;-70
2024/02/18 12:46:47;;;;;;;0.30;0.20;;;16.30;93.90;;;;;;4958333;28;20275;-70
2024/02/18 12:49:13;;;;;;;0.30;0.30;;;16.20;93.90;;;;;;4958697;29;20169;-69
2024/02/18 12:51:42;;;;;;;0.40;0.40;;;16.10;94.00;;;;;;4958393;29;20168;-69
2024/02/18 12:54:13;;;;;;;0.30;0.30;;;16.10;94.30;;;;;;4950632;29;20208;-70
2024/02/18 12:56:39;;;;;;;0.30;0.30;;;16.20;94.30;;;;;;4938682;29;20440;-70
2024/02/18 12:59:05;;;;;;;0.30;0.20;;;16.20;94.40;;;;;;4921810;29;20425;-69
2024/02/18 13:01:31;;;;;;;0.40;0.30;;;16.20;93.90;;;;;;4939113;29;20395;-69
2024/02/18 13:03:57;;;;;;;0.30;0.20;;;16.20;94.10;;;;;;4938763;29;20197;-69
2024/02/18 13:06:25;;;;;;;0.30;0.27;;;16.10;93.90;;;;;;4938433;29;20652;-70
2024/02/18 13:08:50;;;;;;;0.30;0.20;;;16.10;94.10;;;;;;4946177;29;20185;-69
2024/02/18 13:11:17;;;;;;;0.30;0.30;;;16.00;94.50;;;;;;4958173;29;20394;-70
2024/02/18 13:13:43;;;;;;;0.30;0.30;;;16.00;94.50;;;;;;4958001;29;20196;-69
2024/02/18 13:16:09;;;;;;;0.30;0.30;;;16.00;94.40;;;;;;4957555;29;20436;-69
2024/02/18 13:18:41;;;;;;;0.30;0.20;;;15.90;95.00;;;;;;4957970;29;20395;-70
2024/02/18 13:21:07;;;;;;;0.30;0.23;;;15.90;95.90;;;;;;4957944;29;20382;-69
2024/02/18 13:23:37;;;;;;;0.63;0.60;;;15.80;96.20;;;;;;4933145;29;20544;-69
2024/02/18 13:26:03;;;;;;;0.30;0.30;;;15.80;96.10;;;;;;4938245;29;20502;-69
2024/02/18 13:28:29;;;;;;;1.33;1.23;;;15.80;96.30;;;;;;4921562;29;20783;-69
2024/02/18 13:30:55;;;;;;;0.33;0.33;;;15.80;96.20;;;;;;4938691;29;20447;-69
2024/02/18 13:33:22;;;;;;;0.30;0.30;;;15.70;96.70;;;;;;4938540;29;20178;-70
2024/02/18 13:35:48;;;;;;;0.30;0.30;;;15.60;97.00;;;;;;4937913;29;20412;-69
2024/02/18 13:38:13;;;;;;;0.30;0.30;;;15.60;97.60;;;;;;4945243;29;20747;-69
2024/02/18 13:40:39;;;;;;;0.30;0.30;;;15.50;97.60;;;;;;4957399;28;20181;-69
2024/02/18 13:43:05;;;;;;;0.40;0.37;;;15.50;97.80;;;;;;4957496;29;20560;-69
2024/02/18 13:45:30;;;;;;;0.30;0.30;;;15.40;98.30;;;;;;4956985;28;20199;-69
2024/02/18 13:47:56;;;;;;;0.30;0.20;;;15.40;98.50;;;;;;4957395;29;20176;-71
2024/02/18 13:50:21;;;;;;;0.30;0.20;;;15.40;98.40;;;;;;4957365;29;20176;-69
2024/02/18 13:52:47;;;;;;;0.30;0.20;;;15.40;97.70;;;;;;4951940;29;20181;-69
2024/02/18 13:55:13;;;;;;;0.30;0.30;;;15.50;97.70;;;;;;4938014;29;20244;-68
2024/02/18 13:57:38;;;;;;;0.30;0.20;;;15.60;97.00;;;;;;4939167;29;20173;-69
2024/02/18 14:00:04;;;;;;;0.30;0.30;;;15.60;96.70;;;;;;4937990;29;20204;-70
2024/02/18 14:02:30;;;;;;;0.50;0.50;;;15.60;96.50;;;;;;4938385;29;20185;-69
2024/02/18 14:04:55;;;;;;;0.40;0.40;;;15.60;96.50;;;;;;4937588;29;20786;-69
2024/02/18 14:07:23;;;;;;;0.30;0.30;;;15.50;96.70;;;;;;4941463;29;20204;-70
2024/02/18 14:09:49;;;;;;;0.40;0.40;;;15.50;96.60;;;;;;4956920;29;20165;-72
2024/02/18 14:12:15;;;;;;;0.30;0.30;;;15.50;96.90;;;;;;4956921;29;20409;-70
2024/02/18 14:14:42;;;;;;;0.30;0.30;;;15.60;97.10;;;;;;4956534;29;20413;-70
2024/02/18 14:17:08;;;;;;;0.30;0.20;;;15.60;97.50;;;;;;4956539;28;20405;-70
2024/02/18 14:19:34;;;;;;;0.30;0.30;;;15.60;97.80;;;;;;4956723;29;20420;-69
2024/02/18 14:22:00;;;;;;;0.50;0.50;;;15.60;97.90;;;;;;4953074;29;20765;-69
2024/02/18 14:24:25;;;;;;;0.30;0.30;;;15.60;97.90;;;;;;4937018;29;20460;-70
2024/02/18 14:26:51;;;;;;;0.40;0.40;;;15.60;98.50;;;;;;4937541;29;20205;-69
2024/02/18 14:29:17;;;;;;;0.30;0.30;;;15.60;97.90;;;;;;4937486;29;20176;-69
2024/02/18 14:31:42;;;;;;;0.40;0.37;;;15.60;98.20;;;;;;4937445;29;20168;-70
2024/02/18 14:34:08;;;;;;;0.30;0.30;;;15.60;98.30;;;;;;4956217;29;20189;-70
2024/02/18 14:36:34;;;;;;;0.40;0.40;;;15.60;98.40;;;;;;4956036;29;20204;-69
2024/02/18 14:38:59;;;;;;;0.40;0.30;;;15.50;98.60;;;;;;4956407;29;20179;-69
2024/02/18 14:41:25;;;;;;;0.30;0.20;;;15.30;99.60;;;;;;4955630;29;20202;-69
2024/02/18 14:43:51;;;;;;;0.30;0.20;;;15.10;99.90;;;;;;4956102;29;20196;-69
2024/02/18 14:46:17;;;;;;;0.30;0.30;;;15.00;99.90;;;;;;4938925;29;20645;-69
2024/02/18 14:48:42;;;;;;;0.40;0.40;;;14.80;99.90;;;;;;4956410;29;20450;-69
2024/02/18 14:51:11;;;;;;;0.47;0.47;;;14.60;99.90;;;;;;4956123;29;20270;-69
2024/02/18 14:53:38;;;;;;;0.30;0.30;;;14.40;99.90;;;;;;4955455;28;20176;-69
2024/02/18 14:56:05;;;;;;;0.53;0.53;;;14.20;99.90;;;;;;4938458;29;20472;-70
2024/02/18 14:58:31;;;;;;;0.40;0.40;;;14.00;99.90;;;;;;4956246;29;20415;-69
2024/02/18 15:00:57;;;;;;;0.30;0.30;;;13.80;99.90;;;;;;4938280;29;20417;-70
2024/02/18 15:03:24;;;;;;;0.30;0.30;;;13.70;99.90;;;;;;4956064;29;20612;-70
2024/02/18 15:05:49;;;;;;;0.60;0.60;;;13.60;99.90;;;;;;4955496;28;20409;-70
2024/02/18 15:08:15;;;;;;;0.77;0.53;;;13.50;99.90;;;;;;4956113;29;20933;-68
2024/02/18 15:10:41;;;;;;;0.30;0.30;;;13.50;99.90;;;;;;4956389;29;20663;-69
2024/02/18 15:13:07;;;;;;;0.30;0.30;;;13.40;99.90;;;;;;4956104;29;20180;-70
2024/02/18 15:15:34;;;;;;;0.30;0.30;;;13.40;99.90;;;;;;4955458;28;20199;-69
2024/02/18 15:18:00;;;;;;;0.30;0.30;;;13.30;99.90;;;;;;4955850;29;20173;-68
2024/02/18 15:20:25;;;;;;;0.30;0.30;;;13.20;99.90;;;;;;4941143;29;20429;-70
2024/02/18 15:22:51;;;;;;;0.30;0.30;;;13.10;99.90;;;;;;4936577;29;20181;-69
2024/02/18 15:25:17;;;;;;;0.30;0.30;;;13.10;99.90;;;;;;4936117;29;20256;-69
2024/02/18 15:27:42;;;;;;;0.87;0.87;;;13.00;99.90;;;;;;4936566;29;20173;-69
2024/02/18 15:30:08;;;;;;;0.40;0.40;;;13.00;99.90;;;;;;4919567;29;20173;-69
2024/02/18 15:32:37;;;;;;;0.37;0.37;;;13.00;99.90;;;;;;4936597;29;20180;-69
2024/02/18 15:35:03;;;;;;;0.30;0.30;;;13.00;99.90;;;;;;4948964;28;20424;-69
2024/02/18 15:37:28;;;;;;;0.30;0.30;;;12.90;99.90;;;;;;4955489;29;20394;-69
2024/02/18 15:39:54;;;;;;;0.30;0.30;;;12.90;99.90;;;;;;4955432;29;20380;-68
2024/02/18 15:42:19;;;;;;;0.40;0.40;;;12.90;99.90;;;;;;4955565;29;20173;-69
2024/02/18 15:44:45;;;;;;;0.37;0.37;;;12.90;99.90;;;;;;4955054;29;20683;-70
2024/02/18 15:47:11;;;;;;;0.30;0.30;;;12.90;99.90;;;;;;4955195;28;20660;-68
2024/02/18 15:49:36;;;;;;;0.30;0.30;;;12.80;99.90;;;;;;4954895;29;20168;-69
2024/02/18 15:52:02;;;;;;;0.30;0.30;;;12.80;99.90;;;;;;4955492;29;20196;-68
2024/02/18 15:54:28;;;;;;;0.30;0.30;;;12.70;99.90;;;;;;4954978;29;20366;-69
2024/02/18 15:56:53;;;;;;;0.30;0.30;;;12.70;99.90;;;;;;4955366;29;20224;-69
2024/02/18 15:59:19;;;;;;;0.30;0.30;;;12.70;99.90;;;;;;4938015;29;20627;-70
2024/02/18 16:01:44;;;;;;;0.30;0.20;;;12.70;99.90;;;;;;4955092;29;20173;-68
2024/02/18 16:04:10;;;;;;;0.30;0.30;;;12.60;99.90;;;;;;4953724;28;20263;-69
2024/02/18 16:06:38;;;;;;;0.30;0.30;;;12.60;99.90;;;;;;4954766;28;20207;-68
2024/02/18 16:09:06;;;;;;;0.40;0.40;;;12.70;99.90;;;;;;4954712;29;20171;-69
2024/02/18 16:11:32;;;;;;;2.10;0.73;;;12.60;99.90;;;;;;4955229;29;20418;-68
2024/02/18 16:13:57;;;;;;;0.30;0.30;;;12.50;99.90;;;;;;4955170;29;20778;-68
2024/02/18 16:16:24;;;;;;;0.30;0.30;;;12.50;99.90;;;;;;4954576;29;20195;-69
2024/02/18 16:18:52;;;;;;;0.30;0.30;;;12.50;99.90;;;;;;4955266;29;20694;-68
2024/02/18 16:21:20;;;;;;;0.30;0.30;;;12.40;99.90;;;;;;4955376;29;20788;-68
2024/02/18 16:23:46;;;;;;;0.30;0.30;;;12.40;99.90;;;;;;4954643;29;20487;-69
2024/02/18 16:26:15;;;;;;;0.30;0.30;;;12.40;99.90;;;;;;4954606;29;20443;-69
2024/02/18 16:28:41;;;;;;;0.30;0.30;;;12.30;99.90;;;;;;4955104;29;20412;-70
2024/02/18 16:31:07;;;;;;;0.30;0.30;;;12.20;99.90;;;;;;4935894;29;20420;-69
2024/02/18 16:33:33;;;;;;;0.40;0.40;;;12.20;99.90;;;;;;4935687;29;20544;-70
2024/02/18 16:35:59;;;;;;;0.30;0.30;;;12.10;99.90;;;;;;4935277;29;20903;-69
2024/02/18 16:38:27;;;;;;;0.30;0.30;;;12.10;99.90;;;;;;4935691;29;20495;-70
2024/02/18 16:40:55;;;;;;;0.30;0.30;;;12.00;99.90;;;;;;4935495;29;20446;-70
2024/02/18 16:43:22;;;;;;;0.30;0.30;;;11.90;99.90;;;;;;4935394;29;20886;-69
2024/02/18 16:45:48;;;;;;;0.53;0.53;;;11.90;99.90;;;;;;4953005;28;20445;-70
2024/02/18 16:48:13;;;;;;;0.57;0.57;;;11.80;99.90;;;;;;4954638;29;20467;-69
2024/02/18 16:50:39;;;;;;;0.30;0.30;;;11.80;99.90;;;;;;4937901;29;20660;-69
2024/02/18 16:53:05;;;;;;;0.30;0.30;;;11.70;99.90;;;;;;4954898;29;20503;-70
2024/02/18 16:55:30;;;;;;;0.30;0.30;;;11.70;99.90;;;;;;4954335;28;20287;-70
2024/02/18 16:57:56;;;;;;;0.30;0.30;;;11.60;99.90;;;;;;4937751;29;20423;-69
2024/02/18 17:00:22;;;;;;;0.30;0.30;;;11.50;99.90;;;;;;4920012;29;20256;-69
2024/02/18 17:02:48;;;;;;;0.30;0.30;;;11.50;99.90;;;;;;4935315;29;20410;-69
2024/02/18 17:05:14;;;;;;;0.30;0.30;;;11.40;99.90;;;;;;4934893;29;20170;-69
2024/02/18 17:07:40;;;;;;;0.30;0.20;;;11.30;99.90;;;;;;4935227;29;20729;-69
2024/02/18 17:10:06;;;;;;;0.30;0.30;;;11.30;99.90;;;;;;4935501;29;20469;-69
2024/02/18 17:12:32;;;;;;;0.30;0.30;;;11.30;99.90;;;;;;4935189;29;20426;-69
2024/02/18 17:14:58;;;;;;;0.30;0.30;;;11.30;99.90;;;;;;4950777;28;20578;-68
2024/02/18 17:17:24;;;;;;;0.40;0.40;;;11.20;99.90;;;;;;4957719;28;20675;-69
2024/02/18 17:19:50;;;;;;;0.30;0.30;;;11.20;99.90;;;;;;4958001;29;20417;-68
2024/02/18 17:22:16;;;;;;;0.30;0.30;;;11.20;99.90;;;;;;4940144;29;20317;-70
2024/02/18 17:24:42;;;;;;;0.30;0.30;;;11.10;99.90;;;;;;4930120;29;20575;-70
2024/02/18 17:27:08;;;;;;;0.30;0.30;;;11.10;99.90;;;;;;4957152;29;20194;-66
2024/02/18 17:29:34;;;;;;;0.30;0.30;;;11.00;99.90;;;;;;4942256;29;20917;-66
2024/02/18 17:32:00;;;;;;;0.30;0.30;;;11.00;99.90;;;;;;4938389;29;20467;-70
2024/02/18 17:34:25;;;;;;;0.87;0.87;;;11.00;99.90;;;;;;4938337;29;20537;-72
2024/02/18 17:36:52;;;;;;;0.30;0.30;;;11.00;99.90;;;;;;4920681;29;20552;-71
2024/02/18 17:39:19;;;;;;;0.30;0.20;;;11.00;99.90;;;;;;4921182;29;20187;-70
2024/02/18 17:41:46;;;;;;;0.30;0.30;;;11.00;99.90;;;;;;4938001;29;20426;-70
2024/02/18 17:44:12;;;;;;;0.40;0.40;;;11.00;99.90;;;;;;4952281;29;20489;-76
2024/02/18 17:46:37;;;;;;;0.63;0.63;;;11.00;99.90;;;;;;4945039;29;20523;-71
2024/02/18 17:49:03;;;;;;;0.30;0.30;;;11.00;99.90;;;;;;4939258;29;20861;-74
2024/02/18 17:51:31;;;;;;;0.30;0.30;;;11.00;99.90;;;;;;4934021;29;20207;-73